createdAt,value
2018-12-12T00:02:11.430Z,23.37
2018-12-12T00:04:40.476Z,19.27
2018-12-12T00:07:09.709Z,21.63
2018-12-12T00:19:16.460Z,20.63
2018-12-12T00:21:45.540Z,19.60
2018-12-12T00:24:14.573Z,20.87
2018-12-12T00:34:17.329Z,22.30
2018-12-12T00:36:46.393Z,37.27
2018-12-12T00:39:15.511Z,30.13
2018-12-12T01:44:32.750Z,21.20
2018-12-12T01:47:01.778Z,25.50
2018-12-12T02:02:11.178Z,28.60
2018-12-12T02:37:32.947Z,25.30
2018-12-12T03:25:56.271Z,22.73
2018-12-12T03:44:20.296Z,17.37
2018-12-12T03:46:49.375Z,19.20
2018-12-12T03:58:59.449Z,18.97
2018-12-12T04:01:28.478Z,23.33
2018-12-12T04:04:13.142Z,20.10
2018-12-12T04:06:42.204Z,21.57
2018-12-12T04:15:32.079Z,22.37
2018-12-12T04:18:01.111Z,19.67
2018-12-12T04:20:30.141Z,18.87
2018-12-12T04:22:59.239Z,21.23
2018-12-12T04:25:28.285Z,18.93
2018-12-12T06:13:52.852Z,22.70
2018-12-12T06:16:23.991Z,24.10
2018-12-12T06:19:06.096Z,23.83
2018-12-12T06:21:35.235Z,21.87
2018-12-12T06:24:04.361Z,27.13
2018-12-12T06:26:37.369Z,17.50
2018-12-12T06:29:04.529Z,21.60
2018-12-12T06:31:46.575Z,23.90
2018-12-12T06:34:15.985Z,30.83
2018-12-12T06:36:45.064Z,22.33
2018-12-12T06:39:14.113Z,25.67
2018-12-12T06:41:44.383Z,25.17
2018-12-12T06:44:13.463Z,29.43
2018-12-12T06:47:03.950Z,27.23
2018-12-12T06:49:32.984Z,27.67
2018-12-12T06:52:02.035Z,28.87
2018-12-12T06:54:31.104Z,25.37
2018-12-12T06:57:00.143Z,38.47
2018-12-12T06:59:29.221Z,63.03
2018-12-12T07:01:58.326Z,62.53
2018-12-12T07:04:27.383Z,50.20
2018-12-12T07:07:07.936Z,31.60
2018-12-12T07:09:37.010Z,24.60
2018-12-12T07:12:06.053Z,19.30
2018-12-12T07:14:35.113Z,29.37
2018-12-12T07:17:04.163Z,21.43
2018-12-12T07:19:33.328Z,25.93
2018-12-12T07:22:02.374Z,21.30
2018-12-12T07:24:31.458Z,22.57
2018-12-12T07:27:25.477Z,26.83
2018-12-12T07:29:54.581Z,25.97
2018-12-12T07:32:37.819Z,25.43
2018-12-12T07:35:06.925Z,25.23
2018-12-12T07:37:35.997Z,29.47
2018-12-12T07:40:35.905Z,26.13
2018-12-12T07:43:04.981Z,26.23
2018-12-12T07:45:34.050Z,30.50
2018-12-12T07:48:03.213Z,24.67
2018-12-12T07:50:32.303Z,25.47
2018-12-12T07:53:05.092Z,28.27
2018-12-12T07:55:34.162Z,38.40
2018-12-12T07:58:03.762Z,27.60
2018-12-12T08:00:32.840Z,28.00
2018-12-12T08:03:05.472Z,31.40
2018-12-12T08:05:32.982Z,25.90
2018-12-12T08:08:02.022Z,31.50
2018-12-12T08:10:31.061Z,35.87
2018-12-12T08:13:00.129Z,58.53
2018-12-12T08:15:29.185Z,58.83
2018-12-12T08:18:28.955Z,90.20
2018-12-12T08:20:58.122Z,42.10
2018-12-12T08:23:27.579Z,34.83
2018-12-12T08:25:56.641Z,27.80
2018-12-12T08:28:25.690Z,31.70
2018-12-12T08:30:54.766Z,26.80
2018-12-12T08:33:23.798Z,25.30
2018-12-12T08:35:52.890Z,29.27
2018-12-12T08:38:22.034Z,28.43
2018-12-12T08:40:51.089Z,28.27
2018-12-12T08:43:20.178Z,26.23
2018-12-12T08:45:49.209Z,24.60
2018-12-12T08:48:18.249Z,27.83
2018-12-12T08:50:47.334Z,25.37
2018-12-12T08:53:16.408Z,26.10
2018-12-12T08:55:45.457Z,26.03
2018-12-12T08:58:14.497Z,25.90
2018-12-12T09:00:43.603Z,25.40
2018-12-12T09:03:17.615Z,22.50
2018-12-12T09:05:43.933Z,30.73
2018-12-12T09:08:13.000Z,26.87
2018-12-12T09:10:45.118Z,24.60
2018-12-12T09:13:15.414Z,52.33
2018-12-12T09:15:44.617Z,42.00
2018-12-12T09:18:13.680Z,22.20
2018-12-12T09:20:42.770Z,22.17
2018-12-12T09:23:12.617Z,19.57
2018-12-12T09:25:41.645Z,21.03
2018-12-12T09:28:10.717Z,16.17
2018-12-12T09:30:39.781Z,22.97
2018-12-12T09:33:08.848Z,18.03
2018-12-12T09:35:37.913Z,17.63
2018-12-12T09:38:42.077Z,22.80
2018-12-12T09:41:11.134Z,22.03
2018-12-12T09:43:40.191Z,26.03
2018-12-12T09:46:09.605Z,49.90
2018-12-12T09:48:38.638Z,24.57
2018-12-12T09:51:07.713Z,20.47
2018-12-12T09:53:36.806Z,18.83
2018-12-12T09:56:07.028Z,19.90
2018-12-12T09:58:36.064Z,20.20
2018-12-12T10:01:06.386Z,23.37
2018-12-12T10:03:35.639Z,19.40
2018-12-12T10:06:12.653Z,19.60
2018-12-12T10:08:41.705Z,21.73
2018-12-12T10:11:10.830Z,20.13
2018-12-12T10:13:39.920Z,18.37
2018-12-12T10:16:08.947Z,25.13
2018-12-12T10:18:37.996Z,18.30
2018-12-12T10:21:14.822Z,19.87
2018-12-12T10:23:43.886Z,18.77
2018-12-12T10:26:12.938Z,22.80
2018-12-12T10:28:42.004Z,22.17
2018-12-12T10:31:11.036Z,22.27
2018-12-12T10:33:40.066Z,127.53
2018-12-12T10:36:09.133Z,119.03
2018-12-12T10:38:38.165Z,40.67
2018-12-12T10:41:07.194Z,34.80
2018-12-12T10:43:36.248Z,34.17
2018-12-12T10:46:05.388Z,21.63
2018-12-12T10:48:34.453Z,22.77
2018-12-12T10:51:03.489Z,21.53
2018-12-12T10:53:32.552Z,23.80
2018-12-12T10:56:01.609Z,24.53
2018-12-12T10:58:30.657Z,24.60
2018-12-12T11:01:05.222Z,23.77
2018-12-12T11:03:36.238Z,21.23
2018-12-12T11:06:05.346Z,25.20
2018-12-12T11:08:34.426Z,29.33
2018-12-12T11:11:03.481Z,37.80
2018-12-12T11:13:32.518Z,134.83
2018-12-12T11:16:01.571Z,93.63
2018-12-12T11:18:30.711Z,45.00
2018-12-12T11:20:59.849Z,46.00
2018-12-12T11:23:28.896Z,45.67
2018-12-12T11:25:57.936Z,39.17
2018-12-12T11:28:26.984Z,39.10
2018-12-12T11:30:56.048Z,41.13
2018-12-12T11:33:25.173Z,40.53
2018-12-12T11:35:54.202Z,43.03
2018-12-12T11:38:23.253Z,44.10
2018-12-12T11:40:52.304Z,41.37
2018-12-12T11:43:22.627Z,36.30
2018-12-12T11:45:51.685Z,46.90
2018-12-12T11:48:20.726Z,39.03
2018-12-12T11:50:49.797Z,40.70
2018-12-12T11:53:18.854Z,40.40
2018-12-12T11:55:47.885Z,42.47
2018-12-12T11:58:16.960Z,53.60
2018-12-12T12:00:46.073Z,42.30
2018-12-12T12:03:15.105Z,38.63
2018-12-12T12:05:44.157Z,43.30
2018-12-12T12:08:13.207Z,37.17
2018-12-12T12:10:42.310Z,34.60
2018-12-12T12:13:11.351Z,38.73
2018-12-12T12:15:40.387Z,50.80
2018-12-12T12:18:09.514Z,48.47
2018-12-12T12:20:38.538Z,41.90
2018-12-12T12:23:07.590Z,34.20
2018-12-12T12:25:36.664Z,37.83
2018-12-12T12:28:05.788Z,35.27
2018-12-12T12:30:34.850Z,35.10
2018-12-12T12:33:03.996Z,37.57
2018-12-12T12:35:33.058Z,36.97
2018-12-12T12:38:02.113Z,32.43
2018-12-12T12:40:31.686Z,38.90
2018-12-12T12:43:00.748Z,41.97
2018-12-12T12:45:29.840Z,35.17
2018-12-12T12:47:58.884Z,38.40
2018-12-12T12:50:27.909Z,35.50
2018-12-12T12:52:56.949Z,36.77
2018-12-12T12:55:26.016Z,33.63
2018-12-12T12:57:55.074Z,35.00
2018-12-12T13:00:24.175Z,35.90
2018-12-12T13:02:54.318Z,39.10
2018-12-12T13:05:23.625Z,41.63
2018-12-12T13:07:52.672Z,37.30
2018-12-12T13:10:22.141Z,34.07
2018-12-12T13:12:51.595Z,43.20
2018-12-12T13:15:20.730Z,41.80
2018-12-12T13:17:49.797Z,38.40
2018-12-12T13:20:18.845Z,41.20
2018-12-12T13:22:47.873Z,45.23
2018-12-12T13:25:16.968Z,40.53
2018-12-12T13:27:46.038Z,42.77
2018-12-12T13:30:15.091Z,43.73
2018-12-12T13:32:44.147Z,42.50
2018-12-12T13:35:13.181Z,45.17
2018-12-12T13:37:42.587Z,42.37
2018-12-12T13:40:11.617Z,44.57
2018-12-12T13:42:40.680Z,37.07
2018-12-12T13:45:09.779Z,40.47
2018-12-12T13:47:38.844Z,43.27
2018-12-12T13:50:07.896Z,44.40
2018-12-12T13:52:36.985Z,39.20
2018-12-12T13:55:06.085Z,42.83
2018-12-12T13:57:35.174Z,44.43
2018-12-12T14:00:04.843Z,40.40
2018-12-12T14:02:33.941Z,41.93
2018-12-12T14:05:03.080Z,41.80
2018-12-12T14:07:32.151Z,42.90
2018-12-12T14:10:01.394Z,48.03
2018-12-12T14:12:30.474Z,41.60
2018-12-12T14:14:59.498Z,45.83
2018-12-12T14:17:28.545Z,46.33
2018-12-12T14:19:57.579Z,41.93
2018-12-12T14:22:26.630Z,43.83
2018-12-12T14:24:55.676Z,48.10
2018-12-12T14:27:24.770Z,47.17
2018-12-12T14:29:53.893Z,51.13
2018-12-12T14:32:22.949Z,44.77
2018-12-12T14:34:51.990Z,50.40
2018-12-12T14:37:21.048Z,50.37
2018-12-12T14:39:50.102Z,46.30
2018-12-12T14:42:19.165Z,52.03
2018-12-12T14:44:48.216Z,43.80
2018-12-12T14:47:17.270Z,40.60
2018-12-12T14:49:46.304Z,45.47
2018-12-12T14:52:15.357Z,45.63
2018-12-12T14:54:44.701Z,47.27
2018-12-12T14:57:13.814Z,42.20
2018-12-12T14:59:42.921Z,42.50
2018-12-12T15:02:11.977Z,51.73
2018-12-12T15:04:41.054Z,47.40
2018-12-12T15:07:10.113Z,44.17
2018-12-12T15:09:39.137Z,46.87
2018-12-12T15:12:08.266Z,44.67
2018-12-12T15:14:37.309Z,42.00
2018-12-12T15:17:06.387Z,53.17
2018-12-12T15:19:35.487Z,59.70
2018-12-12T15:22:04.848Z,55.37
2018-12-12T15:24:35.415Z,53.13
2018-12-12T15:27:04.758Z,48.90
2018-12-12T15:29:33.820Z,55.07
2018-12-12T15:32:02.899Z,60.67
2018-12-12T15:34:32.024Z,57.37
2018-12-12T15:37:01.093Z,66.10
2018-12-12T15:39:30.135Z,49.03
2018-12-12T15:41:59.210Z,60.03
2018-12-12T15:44:28.366Z,54.33
2018-12-12T15:46:57.505Z,62.80
2018-12-12T15:49:26.533Z,64.93
2018-12-12T15:51:55.620Z,54.53
2018-12-12T15:54:24.654Z,49.70
2018-12-12T15:56:53.725Z,55.93
2018-12-12T15:59:22.757Z,48.57
2018-12-12T16:01:51.859Z,49.83
2018-12-12T16:04:20.900Z,51.07
2018-12-12T16:06:50.849Z,53.80
2018-12-12T16:09:19.981Z,51.23
2018-12-12T16:11:49.026Z,45.30
2018-12-12T16:14:18.168Z,51.60
2018-12-12T16:16:47.230Z,55.60
2018-12-12T16:19:16.306Z,59.00
2018-12-12T16:21:45.378Z,68.90
2018-12-12T16:24:14.437Z,79.17
2018-12-12T16:26:43.468Z,69.87
2018-12-12T16:29:12.523Z,61.30
2018-12-12T16:31:41.609Z,56.47
2018-12-12T16:34:10.633Z,61.20
2018-12-12T16:36:39.694Z,71.97
2018-12-12T16:39:09.299Z,59.83
2018-12-12T16:41:38.358Z,53.07
2018-12-12T16:44:07.437Z,50.97
2018-12-12T16:46:36.474Z,51.30
2018-12-12T16:49:05.596Z,56.50
2018-12-12T16:51:34.649Z,51.57
2018-12-12T16:54:03.762Z,53.50
2018-12-12T16:56:32.874Z,58.60
2018-12-12T16:59:01.962Z,60.67
2018-12-12T17:01:30.973Z,62.33
2018-12-12T17:04:00.006Z,63.73
2018-12-12T17:06:29.079Z,81.13
2018-12-12T17:08:58.113Z,71.70
2018-12-12T17:11:27.163Z,76.57
2018-12-12T17:13:56.211Z,61.60
2018-12-12T17:16:25.266Z,54.27
2018-12-12T17:18:54.368Z,54.53
2018-12-12T17:21:23.470Z,50.37
2018-12-12T17:23:52.544Z,60.97
2018-12-12T17:26:21.578Z,43.60
2018-12-12T17:28:50.646Z,37.17
2018-12-12T17:31:19.684Z,51.30
2018-12-12T17:33:48.722Z,37.13
2018-12-12T17:36:17.785Z,41.57
2018-12-12T17:38:46.875Z,38.60
2018-12-12T17:41:16.058Z,38.07
2018-12-12T17:43:45.093Z,43.63
2018-12-12T17:46:14.201Z,48.07
2018-12-12T17:48:44.117Z,50.97
2018-12-12T17:51:13.285Z,45.57
2018-12-12T17:53:42.320Z,49.47
2018-12-12T17:56:11.386Z,42.70
2018-12-12T17:58:40.463Z,45.37
2018-12-12T18:01:09.535Z,40.37
2018-12-12T18:03:38.550Z,39.57
2018-12-12T18:06:07.696Z,40.87
2018-12-12T18:08:36.737Z,44.77
2018-12-12T18:11:05.792Z,36.90
2018-12-12T18:13:34.997Z,42.87
2018-12-12T18:16:04.026Z,40.67
2018-12-12T18:18:33.060Z,46.60
2018-12-12T18:21:02.148Z,42.53
2018-12-12T18:23:31.195Z,38.43
2018-12-12T18:26:00.276Z,37.53
2018-12-12T18:28:29.372Z,40.03
2018-12-12T18:30:58.434Z,43.20
2018-12-12T18:33:27.511Z,42.70
2018-12-12T18:35:56.546Z,40.80
2018-12-12T18:38:25.682Z,38.23
2018-12-12T18:40:55.053Z,41.20
2018-12-12T18:43:24.185Z,43.73
2018-12-12T18:45:53.235Z,40.73
2018-12-12T18:48:22.297Z,41.73
2018-12-12T18:50:52.081Z,44.23
2018-12-12T18:53:21.118Z,62.50
2018-12-12T18:55:50.181Z,77.27
2018-12-12T18:58:19.216Z,51.60
2018-12-12T19:00:48.390Z,48.53
2018-12-12T19:03:17.452Z,45.87
2018-12-12T19:05:46.549Z,47.67
2018-12-12T19:08:15.579Z,53.20
2018-12-12T19:10:44.675Z,51.20
2018-12-12T19:13:13.802Z,56.23
2018-12-12T19:15:42.971Z,58.23
2018-12-12T19:18:12.005Z,71.47
2018-12-12T19:20:41.096Z,64.53
2018-12-12T19:23:10.223Z,57.90
2018-12-12T19:25:39.299Z,72.00
2018-12-12T19:28:08.342Z,62.43
2018-12-12T19:30:37.433Z,61.90
2018-12-12T19:33:06.532Z,60.70
2018-12-12T19:35:35.573Z,61.63
2018-12-12T19:38:04.761Z,62.93
2018-12-12T19:40:34.502Z,60.87
2018-12-12T19:43:03.546Z,56.57
2018-12-12T19:45:32.721Z,57.43
2018-12-12T19:48:01.749Z,57.60
2018-12-12T19:50:30.839Z,50.83
2018-12-12T19:52:59.939Z,55.70
2018-12-12T19:55:29.012Z,60.53
2018-12-12T19:57:58.093Z,53.13
2018-12-12T20:00:27.261Z,55.30
2018-12-12T20:02:56.325Z,56.77
2018-12-12T20:05:25.431Z,55.40
2018-12-12T20:07:54.528Z,55.77
2018-12-12T20:10:23.606Z,57.33
2018-12-12T20:12:52.663Z,57.17
2018-12-12T20:15:27.371Z,58.43
2018-12-12T20:17:56.454Z,59.27
2018-12-12T20:20:25.498Z,52.17
2018-12-12T20:22:54.564Z,55.93
2018-12-12T20:25:23.634Z,49.93
2018-12-12T20:27:52.743Z,48.60
2018-12-12T20:30:21.838Z,38.10
2018-12-12T20:32:50.909Z,46.20
2018-12-12T20:35:20.049Z,33.50
2018-12-12T20:37:49.117Z,30.00
2018-12-12T20:40:18.194Z,27.50
2018-12-12T20:42:47.263Z,30.10
2018-12-12T20:45:16.424Z,32.00
2018-12-12T20:47:45.485Z,29.67
2018-12-12T20:50:14.675Z,28.50
2018-12-12T20:52:43.882Z,35.53
2018-12-12T20:55:12.953Z,31.70
2018-12-12T20:57:42.928Z,39.10
2018-12-12T21:00:12.054Z,37.77
2018-12-12T21:02:41.101Z,40.13
2018-12-12T21:05:10.182Z,39.10
2018-12-12T21:07:39.238Z,42.60
2018-12-12T21:10:08.476Z,32.00
2018-12-12T21:12:37.537Z,28.27
2018-12-12T21:15:08.090Z,27.90
2018-12-12T21:17:37.312Z,22.93
2018-12-12T21:20:08.126Z,24.13
2018-12-12T21:22:37.164Z,24.93
2018-12-12T21:25:06.406Z,24.07
2018-12-12T21:27:35.516Z,20.93
2018-12-12T21:30:04.988Z,16.87
2018-12-12T21:32:34.056Z,17.30
2018-12-12T21:35:03.142Z,16.20
2018-12-12T21:37:32.200Z,17.93
2018-12-12T21:40:01.245Z,16.47
2018-12-12T21:42:30.359Z,19.33
2018-12-12T21:44:59.407Z,17.53
2018-12-12T21:47:28.484Z,16.97
2018-12-12T21:49:57.549Z,20.07
2018-12-12T21:52:26.636Z,15.90
2018-12-12T21:54:55.683Z,15.57
2018-12-12T21:57:24.726Z,20.73
2018-12-12T21:59:53.806Z,16.67
2018-12-12T22:02:22.854Z,19.67
2018-12-12T22:04:51.993Z,20.93
2018-12-12T22:07:21.083Z,17.23
2018-12-12T22:09:50.124Z,18.67
2018-12-12T22:12:19.208Z,15.10
2018-12-12T22:14:48.258Z,17.17
2018-12-12T22:17:17.386Z,14.50
2018-12-12T22:19:46.445Z,22.63
2018-12-12T22:22:15.481Z,17.50
2018-12-12T22:24:44.567Z,12.13
2018-12-12T22:27:13.678Z,18.67
2018-12-12T22:29:42.772Z,15.93
2018-12-12T22:32:11.890Z,19.17
2018-12-12T22:34:40.953Z,22.27
2018-12-12T22:37:10.048Z,20.23
2018-12-12T22:39:39.123Z,20.37
2018-12-12T22:42:08.161Z,20.57
2018-12-12T22:44:37.270Z,20.17
2018-12-12T22:47:06.373Z,25.37
2018-12-12T22:49:35.448Z,23.93
2018-12-12T22:52:04.507Z,29.80
2018-12-12T22:54:33.561Z,30.70
2018-12-12T22:57:02.646Z,26.63
2018-12-12T22:59:31.712Z,21.77
2018-12-12T23:02:00.766Z,27.40
2018-12-12T23:04:31.762Z,25.73
2018-12-12T23:07:00.971Z,23.50
2018-12-12T23:09:30.066Z,23.97
2018-12-12T23:11:59.122Z,27.33
2018-12-12T23:14:28.188Z,18.40
2018-12-12T23:16:57.272Z,19.97
2018-12-12T23:19:26.393Z,18.70
2018-12-12T23:21:55.451Z,16.97
2018-12-12T23:24:25.153Z,15.63
2018-12-12T23:26:54.488Z,16.87
2018-12-12T23:29:23.563Z,16.37
2018-12-12T23:31:52.593Z,16.50
2018-12-12T23:34:21.653Z,12.37
2018-12-12T23:36:50.744Z,16.00
2018-12-12T23:39:19.885Z,18.03
2018-12-12T23:41:48.893Z,15.77
2018-12-12T23:44:24.566Z,13.60
2018-12-12T23:46:54.381Z,16.87
2018-12-12T23:49:23.444Z,15.43
2018-12-12T23:51:52.524Z,17.00
2018-12-12T23:54:21.614Z,18.23
2018-12-12T23:56:50.677Z,14.20
2018-12-12T23:59:19.765Z,14.60
